sensor_id;sensor_type;location;lat;lon;timestamp;pressure;altitude;pressure_sealevel;temperature;humidity
39455;BME280;25155;41.890;23.446;2023-01-30T00:01:26;91912.25;;;-2.98;66.96
39455;BME280;25155;41.890;23.446;2023-01-30T00:03:54;91901.19;;;-3.05;66.47
39455;BME280;25155;41.890;23.446;2023-01-30T00:06:22;91903.38;;;-3.09;66.86
39455;BME280;25155;41.890;23.446;2023-01-30T00:08:52;91902.22;;;-3.06;67.36
39455;BME280;25155;41.890;23.446;2023-01-30T00:11:20;91893.31;;;-2.97;67.34
39455;BME280;25155;41.890;23.446;2023-01-30T00:13:48;91907.50;;;-2.81;67.10
39455;BME280;25155;41.890;23.446;2023-01-30T00:16:16;91905.28;;;-2.71;66.98
39455;BME280;25155;41.890;23.446;2023-01-30T00:18:43;91898.97;;;-2.61;67.46
39455;BME280;25155;41.890;23.446;2023-01-30T00:21:13;91894.59;;;-2.54;67.08
39455;BME280;25155;41.890;23.446;2023-01-30T00:23:41;91901.53;;;-2.55;67.19
39455;BME280;25155;41.890;23.446;2023-01-30T00:26:10;91888.53;;;-2.73;66.86
39455;BME280;25155;41.890;23.446;2023-01-30T00:28:37;91894.84;;;-2.69;66.33
39455;BME280;25155;41.890;23.446;2023-01-30T00:31:06;91898.41;;;-2.84;65.96
39455;BME280;25155;41.890;23.446;2023-01-30T00:33:35;91891.75;;;-2.98;66.01
39455;BME280;25155;41.890;23.446;2023-01-30T00:36:03;91895.47;;;-2.94;66.24
39455;BME280;25155;41.890;23.446;2023-01-30T00:38:30;91897.63;;;-2.91;65.59
39455;BME280;25155;41.890;23.446;2023-01-30T00:40:58;91890.53;;;-2.89;65.71
39455;BME280;25155;41.890;23.446;2023-01-30T00:43:26;91894.28;;;-2.85;65.72
39455;BME280;25155;41.890;23.446;2023-01-30T00:46:15;91880.25;;;-2.75;66.34
39455;BME280;25155;41.890;23.446;2023-01-30T00:49:01;91888.91;;;-2.63;66.52
39455;BME280;25155;41.890;23.446;2023-01-30T00:51:28;91887.28;;;-2.57;67.14
39455;BME280;25155;41.890;23.446;2023-01-30T00:53:55;91889.66;;;-2.49;67.30
39455;BME280;25155;41.890;23.446;2023-01-30T00:56:22;91883.72;;;-2.50;67.76
39455;BME280;25155;41.890;23.446;2023-01-30T00:58:51;91882.19;;;-2.64;67.85
39455;BME280;25155;41.890;23.446;2023-01-30T01:01:18;91877.06;;;-2.64;67.84
39455;BME280;25155;41.890;23.446;2023-01-30T01:03:45;91870.34;;;-2.58;67.34
39455;BME280;25155;41.890;23.446;2023-01-30T01:06:13;91866.56;;;-2.56;67.16
39455;BME280;25155;41.890;23.446;2023-01-30T01:08:40;91853.75;;;-2.56;66.80
39455;BME280;25155;41.890;23.446;2023-01-30T01:11:07;91850.56;;;-2.51;67.38
39455;BME280;25155;41.890;23.446;2023-01-30T01:13:34;91853.00;;;-2.63;67.46
39455;BME280;25155;41.890;23.446;2023-01-30T01:16:03;91846.09;;;-2.69;66.82
39455;BME280;25155;41.890;23.446;2023-01-30T01:18:32;91843.75;;;-2.77;66.38
39455;BME280;25155;41.890;23.446;2023-01-30T01:20:59;91847.31;;;-2.78;66.94
39455;BME280;25155;41.890;23.446;2023-01-30T01:23:26;91836.84;;;-2.70;67.03
39455;BME280;25155;41.890;23.446;2023-01-30T01:25:54;91837.81;;;-2.71;67.07
39455;BME280;25155;41.890;23.446;2023-01-30T01:28:22;91836.03;;;-2.71;66.75
39455;BME280;25155;41.890;23.446;2023-01-30T01:30:49;91836.59;;;-2.69;66.08
39455;BME280;25155;41.890;23.446;2023-01-30T01:33:18;91832.28;;;-2.68;65.96
39455;BME280;25155;41.890;23.446;2023-01-30T01:35:45;91825.94;;;-2.66;66.36
39455;BME280;25155;41.890;23.446;2023-01-30T01:38:12;91822.63;;;-2.73;66.11
39455;BME280;25155;41.890;23.446;2023-01-30T01:40:44;91820.09;;;-2.79;66.27
39455;BME280;25155;41.890;23.446;2023-01-30T01:43:32;91814.00;;;-2.98;65.28
39455;BME280;25155;41.890;23.446;2023-01-30T01:46:05;91818.56;;;-3.07;64.42
39455;BME280;25155;41.890;23.446;2023-01-30T01:48:38;91814.84;;;-3.11;64.59
39455;BME280;25155;41.890;23.446;2023-01-30T01:51:11;91802.44;;;-3.14;64.72
39455;BME280;25155;41.890;23.446;2023-01-30T01:53:39;91804.03;;;-3.33;65.56
39455;BME280;25155;41.890;23.446;2023-01-30T01:56:10;91795.31;;;-3.12;65.06
39455;BME280;25155;41.890;23.446;2023-01-30T01:58:41;91792.81;;;-3.39;65.09
39455;BME280;25155;41.890;23.446;2023-01-30T02:01:10;91791.59;;;-3.16;65.47
39455;BME280;25155;41.890;23.446;2023-01-30T02:03:44;91796.50;;;-3.08;65.55
39455;BME280;25155;41.890;23.446;2023-01-30T02:06:13;91789.97;;;-3.04;65.92
39455;BME280;25155;41.890;23.446;2023-01-30T02:08:44;91808.91;;;-3.05;66.76
39455;BME280;25155;41.890;23.446;2023-01-30T02:11:21;91793.50;;;-2.98;67.01
39455;BME280;25155;41.890;23.446;2023-01-30T02:13:52;91783.81;;;-2.90;66.75
39455;BME280;25155;41.890;23.446;2023-01-30T02:16:20;91786.56;;;-2.85;66.54
39455;BME280;25155;41.890;23.446;2023-01-30T02:18:49;91784.00;;;-2.85;66.93
39455;BME280;25155;41.890;23.446;2023-01-30T02:21:54;91788.53;;;-2.87;66.59
39455;BME280;25155;41.890;23.446;2023-01-30T02:24:44;91796.41;;;-2.82;66.70
39455;BME280;25155;41.890;23.446;2023-01-30T02:27:42;91801.16;;;-2.92;68.18
39455;BME280;25155;41.890;23.446;2023-01-30T02:30:51;91804.34;;;-2.90;68.09
39455;BME280;25155;41.890;23.446;2023-01-30T02:33:36;91803.53;;;-2.90;67.76
39455;BME280;25155;41.890;23.446;2023-01-30T02:36:15;91806.34;;;-3.05;67.78
39455;BME280;25155;41.890;23.446;2023-01-30T02:38:51;91806.97;;;-3.16;67.94
39455;BME280;25155;41.890;23.446;2023-01-30T02:41:27;91813.06;;;-3.17;68.07
39455;BME280;25155;41.890;23.446;2023-01-30T02:44:03;91805.94;;;-3.09;67.96
39455;BME280;25155;41.890;23.446;2023-01-30T02:46:42;91807.53;;;-3.01;67.94
39455;BME280;25155;41.890;23.446;2023-01-30T02:49:14;91802.03;;;-3.11;67.96
39455;BME280;25155;41.890;23.446;2023-01-30T02:51:45;91805.38;;;-3.17;67.33
39455;BME280;25155;41.890;23.446;2023-01-30T02:54:13;91808.91;;;-3.12;67.02
39455;BME280;25155;41.890;23.446;2023-01-30T02:56:45;91816.00;;;-3.07;67.21
39455;BME280;25155;41.890;23.446;2023-01-30T02:59:18;91810.66;;;-2.99;67.42
39455;BME280;25155;41.890;23.446;2023-01-30T03:05:02;91804.13;;;-2.88;67.27
39455;BME280;25155;41.890;23.446;2023-01-30T03:07:42;91807.84;;;-2.84;67.43
39455;BME280;25155;41.890;23.446;2023-01-30T03:10:20;91804.13;;;-2.88;67.99
39455;BME280;25155;41.890;23.446;2023-01-30T03:12:54;91810.81;;;-2.87;67.78
39455;BME280;25155;41.890;23.446;2023-01-30T03:15:29;91811.44;;;-2.85;67.77
39455;BME280;25155;41.890;23.446;2023-01-30T03:18:01;91805.31;;;-2.91;68.65
39455;BME280;25155;41.890;23.446;2023-01-30T03:20:35;91805.75;;;-3.07;68.68
39455;BME280;25155;41.890;23.446;2023-01-30T03:23:05;91805.78;;;-3.21;68.12
39455;BME280;25155;41.890;23.446;2023-01-30T03:25:34;91803.22;;;-3.21;67.02
39455;BME280;25155;41.890;23.446;2023-01-30T03:28:05;91803.81;;;-3.32;66.77
39455;BME280;25155;41.890;23.446;2023-01-30T03:30:34;91807.00;;;-3.50;66.22
39455;BME280;25155;41.890;23.446;2023-01-30T03:33:01;91804.25;;;-3.55;66.53
39455;BME280;25155;41.890;23.446;2023-01-30T03:35:30;91804.44;;;-3.57;66.54
39455;BME280;25155;41.890;23.446;2023-01-30T03:37:57;91807.00;;;-3.57;66.41
39455;BME280;25155;41.890;23.446;2023-01-30T03:40:25;91802.28;;;-3.53;66.21
39455;BME280;25155;41.890;23.446;2023-01-30T03:42:52;91801.09;;;-3.44;66.61
39455;BME280;25155;41.890;23.446;2023-01-30T03:45:19;91809.78;;;-3.38;66.16
39455;BME280;25155;41.890;23.446;2023-01-30T03:47:46;91799.72;;;-3.33;65.83
39455;BME280;25155;41.890;23.446;2023-01-30T03:50:14;91801.06;;;-3.37;65.97
39455;BME280;25155;41.890;23.446;2023-01-30T03:52:42;91796.94;;;-3.51;65.92
39455;BME280;25155;41.890;23.446;2023-01-30T03:55:10;91789.28;;;-3.65;65.81
39455;BME280;25155;41.890;23.446;2023-01-30T03:57:37;91790.88;;;-3.77;66.05
39455;BME280;25155;41.890;23.446;2023-01-30T04:00:05;91781.59;;;-3.91;66.27
39455;BME280;25155;41.890;23.446;2023-01-30T04:02:34;91782.59;;;-4.06;66.53
39455;BME280;25155;41.890;23.446;2023-01-30T04:05:04;91780.81;;;-4.12;67.02
39455;BME280;25155;41.890;23.446;2023-01-30T04:07:31;91773.13;;;-4.12;67.19
39455;BME280;25155;41.890;23.446;2023-01-30T04:09:59;91771.75;;;-4.15;66.95
39455;BME280;25155;41.890;23.446;2023-01-30T04:12:27;91770.00;;;-4.14;66.90
39455;BME280;25155;41.890;23.446;2023-01-30T04:14:54;91767.81;;;-4.17;67.49
39455;BME280;25155;41.890;23.446;2023-01-30T04:17:21;91765.63;;;-4.20;67.38
39455;BME280;25155;41.890;23.446;2023-01-30T04:19:48;91762.88;;;-4.25;67.19
39455;BME280;25155;41.890;23.446;2023-01-30T04:22:15;91754.22;;;-4.24;66.68
39455;BME280;25155;41.890;23.446;2023-01-30T04:24:43;91754.19;;;-4.38;66.85
39455;BME280;25155;41.890;23.446;2023-01-30T04:27:12;91749.81;;;-4.57;66.85
39455;BME280;25155;41.890;23.446;2023-01-30T04:29:39;91745.72;;;-4.45;67.14
39455;BME280;25155;41.890;23.446;2023-01-30T04:32:07;91737.25;;;-4.52;66.51
39455;BME280;25155;41.890;23.446;2023-01-30T04:34:34;91740.03;;;-4.40;66.88
39455;BME280;25155;41.890;23.446;2023-01-30T04:37:01;91731.75;;;-4.42;66.53
39455;BME280;25155;41.890;23.446;2023-01-30T04:39:28;91736.84;;;-4.42;66.88
39455;BME280;25155;41.890;23.446;2023-01-30T04:41:58;91732.38;;;-4.34;66.52
39455;BME280;25155;41.890;23.446;2023-01-30T04:44:27;91737.69;;;-4.22;66.37
39455;BME280;25155;41.890;23.446;2023-01-30T04:46:54;91737.50;;;-4.14;66.17
39455;BME280;25155;41.890;23.446;2023-01-30T04:49:22;91730.78;;;-4.08;65.98
39455;BME280;25155;41.890;23.446;2023-01-30T04:51:49;91727.84;;;-4.05;65.38
39455;BME280;25155;41.890;23.446;2023-01-30T04:54:16;91729.44;;;-4.04;65.29
39455;BME280;25155;41.890;23.446;2023-01-30T04:56:43;91714.47;;;-4.07;65.58
39455;BME280;25155;41.890;23.446;2023-01-30T04:59:10;91725.84;;;-4.03;65.53
39455;BME280;25155;41.890;23.446;2023-01-30T05:01:39;91729.22;;;-3.96;64.97
39455;BME280;25155;41.890;23.446;2023-01-30T05:04:07;91728.63;;;-3.91;65.13
39455;BME280;25155;41.890;23.446;2023-01-30T05:06:34;91724.69;;;-3.94;65.26
39455;BME280;25155;41.890;23.446;2023-01-30T05:09:02;91736.31;;;-3.84;65.59
39455;BME280;25155;41.890;23.446;2023-01-30T05:11:30;91726.28;;;-3.86;65.24
39455;BME280;25155;41.890;23.446;2023-01-30T05:13:58;91738.88;;;-3.78;65.28
39455;BME280;25155;41.890;23.446;2023-01-30T05:16:25;91740.22;;;-3.75;64.77
39455;BME280;25155;41.890;23.446;2023-01-30T05:18:54;91741.63;;;-3.79;65.11
39455;BME280;25155;41.890;23.446;2023-01-30T05:21:23;91745.34;;;-3.82;65.28
39455;BME280;25155;41.890;23.446;2023-01-30T05:23:52;91747.53;;;-4.12;65.51
39455;BME280;25155;41.890;23.446;2023-01-30T05:26:20;91743.78;;;-3.96;65.65
39455;BME280;25155;41.890;23.446;2023-01-30T05:28:52;91749.50;;;-3.94;66.23
39455;BME280;25155;41.890;23.446;2023-01-30T05:31:19;91749.31;;;-3.92;66.12
39455;BME280;25155;41.890;23.446;2023-01-30T05:33:49;91755.81;;;-3.97;65.67
39455;BME280;25155;41.890;23.446;2023-01-30T05:36:21;91756.19;;;-4.00;66.29
39455;BME280;25155;41.890;23.446;2023-01-30T05:38:49;91751.88;;;-3.92;65.89
39455;BME280;25155;41.890;23.446;2023-01-30T05:41:16;91764.25;;;-3.89;66.25
39455;BME280;25155;41.890;23.446;2023-01-30T05:43:48;91750.50;;;-3.95;66.21
39455;BME280;25155;41.890;23.446;2023-01-30T05:46:15;91753.03;;;-3.88;66.44
39455;BME280;25155;41.890;23.446;2023-01-30T05:48:42;91757.00;;;-3.86;65.99
39455;BME280;25155;41.890;23.446;2023-01-30T05:51:19;91756.19;;;-3.86;65.97
39455;BME280;25155;41.890;23.446;2023-01-30T05:53:46;91757.38;;;-3.82;66.45
39455;BME280;25155;41.890;23.446;2023-01-30T05:56:14;91753.03;;;-3.82;66.33
39455;BME280;25155;41.890;23.446;2023-01-30T05:58:42;91757.75;;;-3.72;66.76
39455;BME280;25155;41.890;23.446;2023-01-30T06:01:11;91750.59;;;-3.30;66.59
39455;BME280;25155;41.890;23.446;2023-01-30T06:03:38;91764.00;;;-2.69;66.24
39455;BME280;25155;41.890;23.446;2023-01-30T06:06:06;91762.19;;;-2.23;65.31
39455;BME280;25155;41.890;23.446;2023-01-30T06:08:36;91761.13;;;-2.16;64.48
39455;BME280;25155;41.890;23.446;2023-01-30T06:11:04;91759.06;;;-2.32;64.48
39455;BME280;25155;41.890;23.446;2023-01-30T06:13:32;91758.97;;;-2.51;64.73
39455;BME280;25155;41.890;23.446;2023-01-30T06:15:59;91763.38;;;-2.65;64.62
39455;BME280;25155;41.890;23.446;2023-01-30T06:18:27;91764.81;;;-2.75;65.29
39455;BME280;25155;41.890;23.446;2023-01-30T06:20:54;91765.44;;;-2.80;65.27
39455;BME280;25155;41.890;23.446;2023-01-30T06:23:21;91768.59;;;-2.85;65.07
39455;BME280;25155;41.890;23.446;2023-01-30T06:25:51;91763.31;;;-2.90;65.00
39455;BME280;25155;41.890;23.446;2023-01-30T06:28:21;91765.09;;;-2.97;65.57
39455;BME280;25155;41.890;23.446;2023-01-30T06:30:49;91755.66;;;-3.03;65.57
39455;BME280;25155;41.890;23.446;2023-01-30T06:33:17;91749.75;;;-3.10;65.81
39455;BME280;25155;41.890;23.446;2023-01-30T06:35:46;91758.63;;;-3.06;66.09
39455;BME280;25155;41.890;23.446;2023-01-30T06:38:14;91765.09;;;-2.97;66.40
39455;BME280;25155;41.890;23.446;2023-01-30T06:40:46;91757.56;;;-2.92;66.38
39455;BME280;25155;41.890;23.446;2023-01-30T06:43:16;91756.59;;;-2.91;66.26
39455;BME280;25155;41.890;23.446;2023-01-30T06:45:44;91765.22;;;-2.78;66.38
39455;BME280;25155;41.890;23.446;2023-01-30T06:48:12;91757.09;;;-2.75;66.30
39455;BME280;25155;41.890;23.446;2023-01-30T06:50:39;91759.88;;;-2.70;66.37
39455;BME280;25155;41.890;23.446;2023-01-30T06:53:07;91759.03;;;-2.64;66.71
39455;BME280;25155;41.890;23.446;2023-01-30T06:55:34;91756.22;;;-2.56;67.10
39455;BME280;25155;41.890;23.446;2023-01-30T06:58:04;91751.88;;;-2.49;66.96
39455;BME280;25155;41.890;23.446;2023-01-30T07:00:34;91751.03;;;-2.42;66.69
39455;BME280;25155;41.890;23.446;2023-01-30T07:03:04;91758.06;;;-2.31;67.08
39455;BME280;25155;41.890;23.446;2023-01-30T07:05:31;91762.38;;;-2.25;66.81
39455;BME280;25155;41.890;23.446;2023-01-30T07:07:59;91753.50;;;-2.29;66.19
39455;BME280;25155;41.890;23.446;2023-01-30T07:10:26;91748.13;;;-2.21;67.08
39455;BME280;25155;41.890;23.446;2023-01-30T07:12:56;91756.75;;;-2.09;67.18
39455;BME280;25155;41.890;23.446;2023-01-30T07:15:23;91754.19;;;-2.09;66.15
39455;BME280;25155;41.890;23.446;2023-01-30T07:17:52;91752.03;;;-2.12;65.93
39455;BME280;25155;41.890;23.446;2023-01-30T07:20:19;91748.25;;;-2.09;66.29
39455;BME280;25155;41.890;23.446;2023-01-30T07:22:50;91746.59;;;-1.97;66.60
39455;BME280;25155;41.890;23.446;2023-01-30T07:25:18;91748.84;;;-1.82;66.32
39455;BME280;25155;41.890;23.446;2023-01-30T07:27:49;91754.28;;;-1.72;64.83
39455;BME280;25155;41.890;23.446;2023-01-30T07:30:17;91757.59;;;-1.64;64.40
39455;BME280;25155;41.890;23.446;2023-01-30T07:32:48;91751.47;;;-1.63;64.15
39455;BME280;25155;41.890;23.446;2023-01-30T07:35:17;91755.59;;;-1.62;64.75
39455;BME280;25155;41.890;23.446;2023-01-30T07:37:45;91752.91;;;-1.49;65.34
39455;BME280;25155;41.890;23.446;2023-01-30T07:40:13;91743.28;;;-1.35;65.34
39455;BME280;25155;41.890;23.446;2023-01-30T07:42:41;91749.03;;;-1.14;65.31
39455;BME280;25155;41.890;23.446;2023-01-30T07:45:09;91750.72;;;-1.08;64.32
39455;BME280;25155;41.890;23.446;2023-01-30T07:47:37;91755.03;;;-1.02;64.26
39455;BME280;25155;41.890;23.446;2023-01-30T07:50:05;91754.16;;;-0.96;64.20
39455;BME280;25155;41.890;23.446;2023-01-30T07:52:34;91751.38;;;-0.94;63.73
39455;BME280;25155;41.890;23.446;2023-01-30T07:55:02;91751.03;;;-0.98;63.66
39455;BME280;25155;41.890;23.446;2023-01-30T07:57:29;91750.97;;;-0.91;63.84
39455;BME280;25155;41.890;23.446;2023-01-30T07:59:56;91752.31;;;-0.89;63.90
39455;BME280;25155;41.890;23.446;2023-01-30T08:02:24;91756.03;;;-0.85;63.36
39455;BME280;25155;41.890;23.446;2023-01-30T08:04:51;91760.72;;;-0.82;63.68
39455;BME280;25155;41.890;23.446;2023-01-30T08:07:18;91759.72;;;-0.81;63.44
39455;BME280;25155;41.890;23.446;2023-01-30T08:09:47;91752.00;;;-0.81;63.41
39455;BME280;25155;41.890;23.446;2023-01-30T08:12:15;91755.75;;;-0.76;63.45
39455;BME280;25155;41.890;23.446;2023-01-30T08:14:43;91762.22;;;-0.74;63.72
39455;BME280;25155;41.890;23.446;2023-01-30T08:17:10;91753.50;;;-0.73;62.66
39455;BME280;25155;41.890;23.446;2023-01-30T08:19:38;91766.47;;;-0.80;62.59
39455;BME280;25155;41.890;23.446;2023-01-30T08:22:05;91753.25;;;-0.83;63.06
39455;BME280;25155;41.890;23.446;2023-01-30T08:24:32;91756.16;;;-0.80;63.22
39455;BME280;25155;41.890;23.446;2023-01-30T08:27:02;91755.34;;;-0.80;62.86
39455;BME280;25155;41.890;23.446;2023-01-30T08:29:29;91754.94;;;-0.77;62.59
39455;BME280;25155;41.890;23.446;2023-01-30T08:31:57;91756.72;;;-0.78;62.75
39455;BME280;25155;41.890;23.446;2023-01-30T08:34:24;91756.50;;;-0.76;62.88
39455;BME280;25155;41.890;23.446;2023-01-30T08:36:52;91763.00;;;-0.73;62.68
39455;BME280;25155;41.890;23.446;2023-01-30T08:39:20;91747.13;;;-0.70;63.16
39455;BME280;25155;41.890;23.446;2023-01-30T08:41:47;91744.34;;;-0.69;63.25
39455;BME280;25155;41.890;23.446;2023-01-30T08:44:16;91751.28;;;-0.69;62.38
39455;BME280;25155;41.890;23.446;2023-01-30T08:46:43;91750.66;;;-0.65;62.34
39455;BME280;25155;41.890;23.446;2023-01-30T08:49:12;91734.06;;;-0.69;62.54
39455;BME280;25155;41.890;23.446;2023-01-30T08:51:40;91742.03;;;-0.58;62.84
39455;BME280;25155;41.890;23.446;2023-01-30T08:54:07;91736.88;;;-0.58;61.53
39455;BME280;25155;41.890;23.446;2023-01-30T08:56:35;91735.22;;;-0.83;58.94
39455;BME280;25155;41.890;23.446;2023-01-30T08:59:02;91728.88;;;-0.99;59.66
39455;BME280;25155;41.890;23.446;2023-01-30T09:01:31;91726.44;;;-0.94;60.13
39455;BME280;25155;41.890;23.446;2023-01-30T09:03:58;91721.22;;;-1.06;58.37
39455;BME280;25155;41.890;23.446;2023-01-30T09:06:27;91720.44;;;-1.25;60.18
39455;BME280;25155;41.890;23.446;2023-01-30T09:08:55;91716.25;;;-1.38;59.28
39455;BME280;25155;41.890;23.446;2023-01-30T09:11:23;91709.72;;;-1.22;60.13
39455;BME280;25155;41.890;23.446;2023-01-30T09:13:50;91701.78;;;-1.20;59.99
39455;BME280;25155;41.890;23.446;2023-01-30T09:16:17;91700.00;;;-1.38;58.00
39455;BME280;25155;41.890;23.446;2023-01-30T09:18:46;91691.22;;;-1.49;59.54
39455;BME280;25155;41.890;23.446;2023-01-30T09:21:13;91687.50;;;-1.53;59.28
39455;BME280;25155;41.890;23.446;2023-01-30T09:23:41;91689.28;;;-1.54;59.46
39455;BME280;25155;41.890;23.446;2023-01-30T09:26:09;91686.09;;;-1.30;60.18
39455;BME280;25155;41.890;23.446;2023-01-30T09:28:36;91681.22;;;-1.20;60.57
39455;BME280;25155;41.890;23.446;2023-01-30T09:31:04;91678.75;;;-0.97;58.69
39455;BME280;25155;41.890;23.446;2023-01-30T09:33:31;91668.97;;;-0.88;58.16
39455;BME280;25155;41.890;23.446;2023-01-30T09:36:00;91669.16;;;-0.71;58.67
39455;BME280;25155;41.890;23.446;2023-01-30T09:38:27;91672.72;;;-0.42;56.71
39455;BME280;25155;41.890;23.446;2023-01-30T09:41:26;91663.72;;;-0.51;57.64
39455;BME280;25155;41.890;23.446;2023-01-30T09:44:09;91652.63;;;-0.63;56.59
39455;BME280;25155;41.890;23.446;2023-01-30T09:46:46;91671.81;;;-0.35;54.75
39455;BME280;25155;41.890;23.446;2023-01-30T09:49:34;91666.00;;;-0.31;56.59
39455;BME280;25155;41.890;23.446;2023-01-30T09:52:16;91665.44;;;-0.33;56.35
39455;BME280;25155;41.890;23.446;2023-01-30T09:54:52;91657.41;;;-0.13;56.35
39455;BME280;25155;41.890;23.446;2023-01-30T09:57:24;91657.31;;;0.18;57.03
39455;BME280;25155;41.890;23.446;2023-01-30T09:59:56;91649.91;;;0.45;57.11
39455;BME280;25155;41.890;23.446;2023-01-30T10:02:36;91644.41;;;0.65;55.41
39455;BME280;25155;41.890;23.446;2023-01-30T10:05:06;91642.41;;;0.55;52.46
39455;BME280;25155;41.890;23.446;2023-01-30T10:10:46;91612.34;;;0.49;53.37
39455;BME280;25155;41.890;23.446;2023-01-30T10:13:32;91624.00;;;0.51;53.10
39455;BME280;25155;41.890;23.446;2023-01-30T10:16:09;91617.41;;;0.32;53.73
39455;BME280;25155;41.890;23.446;2023-01-30T10:18:59;91606.00;;;0.16;55.36
39455;BME280;25155;41.890;23.446;2023-01-30T10:21:41;91604.19;;;0.40;53.77
39455;BME280;25155;41.890;23.446;2023-01-30T10:24:34;91593.09;;;0.40;53.63
39455;BME280;25155;41.890;23.446;2023-01-30T10:27:12;91595.69;;;0.40;53.67
39455;BME280;25155;41.890;23.446;2023-01-30T10:29:46;91595.09;;;0.49;53.54
39455;BME280;25155;41.890;23.446;2023-01-30T10:32:18;91586.09;;;0.52;53.00
39455;BME280;25155;41.890;23.446;2023-01-30T10:34:50;91585.56;;;0.50;52.53
39455;BME280;25155;41.890;23.446;2023-01-30T10:37:18;91588.63;;;0.35;54.33
39455;BME280;25155;41.890;23.446;2023-01-30T10:39:55;91584.53;;;0.63;53.39
39455;BME280;25155;41.890;23.446;2023-01-30T10:42:30;91579.56;;;0.73;53.85
39455;BME280;25155;41.890;23.446;2023-01-30T10:45:07;91577.78;;;0.62;51.79
39455;BME280;25155;41.890;23.446;2023-01-30T10:47:45;91569.28;;;0.61;53.53
39455;BME280;25155;41.890;23.446;2023-01-30T10:50:18;91568.31;;;0.79;53.96
39455;BME280;25155;41.890;23.446;2023-01-30T10:52:53;91564.44;;;0.94;54.10
39455;BME280;25155;41.890;23.446;2023-01-30T10:55:30;91566.25;;;0.93;52.60
39455;BME280;25155;41.890;23.446;2023-01-30T10:58:07;91556.56;;;1.00;53.15
39455;BME280;25155;41.890;23.446;2023-01-30T11:00:40;91555.53;;;0.84;52.07
39455;BME280;25155;41.890;23.446;2023-01-30T11:03:18;91550.00;;;0.93;52.40
39455;BME280;25155;41.890;23.446;2023-01-30T11:05:49;91541.97;;;0.77;52.54
39455;BME280;25155;41.890;23.446;2023-01-30T11:08:22;91544.53;;;0.48;52.83
39455;BME280;25155;41.890;23.446;2023-01-30T11:10:52;91529.00;;;0.31;53.94
39455;BME280;25155;41.890;23.446;2023-01-30T11:13:21;91527.59;;;0.53;53.30
39455;BME280;25155;41.890;23.446;2023-01-30T11:15:53;91512.88;;;0.65;53.07
39455;BME280;25155;41.890;23.446;2023-01-30T11:18:22;91518.19;;;0.46;52.12
39455;BME280;25155;41.890;23.446;2023-01-30T11:21:01;91503.91;;;0.27;53.36
39455;BME280;25155;41.890;23.446;2023-01-30T11:23:34;91501.75;;;0.36;54.29
39455;BME280;25155;41.890;23.446;2023-01-30T11:26:03;91490.06;;;0.45;53.68
39455;BME280;25155;41.890;23.446;2023-01-30T11:28:38;91476.28;;;0.39;54.69
39455;BME280;25155;41.890;23.446;2023-01-30T11:31:18;91496.03;;;0.33;54.57
39455;BME280;25155;41.890;23.446;2023-01-30T11:33:58;91468.31;;;0.53;54.78
39455;BME280;25155;41.890;23.446;2023-01-30T11:36:32;91458.75;;;0.53;54.39
39455;BME280;25155;41.890;23.446;2023-01-30T11:39:03;91465.75;;;0.69;55.01
39455;BME280;25155;41.890;23.446;2023-01-30T11:41:32;91467.44;;;0.93;53.13
39455;BME280;25155;41.890;23.446;2023-01-30T11:44:00;91448.41;;;0.99;51.73
39455;BME280;25155;41.890;23.446;2023-01-30T11:46:30;91451.25;;;0.97;52.19
39455;BME280;25155;41.890;23.446;2023-01-30T11:49:01;91443.50;;;0.97;54.28
39455;BME280;25155;41.890;23.446;2023-01-30T11:51:32;91441.69;;;1.15;53.49
39455;BME280;25155;41.890;23.446;2023-01-30T11:54:02;91440.47;;;1.17;52.09
39455;BME280;25155;41.890;23.446;2023-01-30T11:56:35;91443.09;;;1.39;52.20
39455;BME280;25155;41.890;23.446;2023-01-30T11:59:15;91431.78;;;1.62;50.87
39455;BME280;25155;41.890;23.446;2023-01-30T12:01:47;91433.28;;;1.58;51.25
39455;BME280;25155;41.890;23.446;2023-01-30T12:04:15;91434.13;;;1.64;50.21
39455;BME280;25155;41.890;23.446;2023-01-30T12:06:44;91424.09;;;1.68;51.37
39455;BME280;25155;41.890;23.446;2023-01-30T12:09:31;91415.97;;;1.59;50.26
39455;BME280;25155;41.890;23.446;2023-01-30T12:12:00;91402.47;;;1.35;51.43
39455;BME280;25155;41.890;23.446;2023-01-30T12:14:38;91408.69;;;1.17;50.22
39455;BME280;25155;41.890;23.446;2023-01-30T12:17:13;91396.56;;;1.17;52.33
39455;BME280;25155;41.890;23.446;2023-01-30T12:19:54;91400.53;;;1.25;51.09
39455;BME280;25155;41.890;23.446;2023-01-30T12:22:31;91396.41;;;1.07;51.75
39455;BME280;25155;41.890;23.446;2023-01-30T12:25:06;91400.72;;;1.01;51.95
39455;BME280;25155;41.890;23.446;2023-01-30T12:27:47;91400.94;;;1.00;52.25
39455;BME280;25155;41.890;23.446;2023-01-30T12:30:23;91399.31;;;0.94;51.70
39455;BME280;25155;41.890;23.446;2023-01-30T12:32:57;91397.44;;;0.72;52.20
39455;BME280;25155;41.890;23.446;2023-01-30T12:35:36;91395.72;;;0.78;52.01
39455;BME280;25155;41.890;23.446;2023-01-30T12:38:08;91393.75;;;0.68;52.30
39455;BME280;25155;41.890;23.446;2023-01-30T12:40:50;91388.38;;;0.86;51.81
39455;BME280;25155;41.890;23.446;2023-01-30T12:43:37;91380.94;;;0.73;52.06
39455;BME280;25155;41.890;23.446;2023-01-30T12:46:18;91385.09;;;0.74;51.44
39455;BME280;25155;41.890;23.446;2023-01-30T12:48:58;91383.84;;;0.60;52.08
39455;BME280;25155;41.890;23.446;2023-01-30T12:51:42;91383.91;;;0.65;52.78
39455;BME280;25155;41.890;23.446;2023-01-30T12:54:28;91354.13;;;0.57;52.46
39455;BME280;25155;41.890;23.446;2023-01-30T12:57:11;91375.00;;;0.90;51.83
39455;BME280;25155;41.890;23.446;2023-01-30T12:59:46;91369.91;;;0.95;52.26
39455;BME280;25155;41.890;23.446;2023-01-30T13:02:41;91368.75;;;0.85;50.57
39455;BME280;25155;41.890;23.446;2023-01-30T13:05:21;91363.81;;;0.67;51.17
39455;BME280;25155;41.890;23.446;2023-01-30T13:08:01;91378.28;;;0.51;51.16
39455;BME280;25155;41.890;23.446;2023-01-30T13:10:35;91373.28;;;0.44;51.99
39455;BME280;25155;41.890;23.446;2023-01-30T13:13:12;91364.28;;;0.47;51.73
39455;BME280;25155;41.890;23.446;2023-01-30T13:15:51;91366.72;;;0.54;51.93
39455;BME280;25155;41.890;23.446;2023-01-30T13:18:24;91371.63;;;0.55;51.96
39455;BME280;25155;41.890;23.446;2023-01-30T13:20:58;91379.03;;;0.35;52.60